createdAt,value
2019-01-12T00:00:24.173Z,3.97
2019-01-12T00:02:51.251Z,4.05
2019-01-12T00:05:18.465Z,4.00
2019-01-12T00:07:45.697Z,3.95
2019-01-12T00:10:12.887Z,3.93
2019-01-12T00:12:40.371Z,4.06
2019-01-12T00:15:07.550Z,4.09
2019-01-12T00:17:34.759Z,4.05
2019-01-12T00:20:02.037Z,4.06
2019-01-12T00:22:29.325Z,4.03
2019-01-12T00:24:56.517Z,4.06
2019-01-12T00:27:23.711Z,4.14
2019-01-12T00:29:51.180Z,4.15
2019-01-12T00:32:18.391Z,4.08
2019-01-12T00:34:45.448Z,4.09
2019-01-12T00:37:12.629Z,4.03
2019-01-12T00:39:39.748Z,4.03
2019-01-12T00:42:07.223Z,4.05
2019-01-12T00:44:34.378Z,4.01
2019-01-12T00:47:01.928Z,3.95
2019-01-12T00:49:29.084Z,3.94
2019-01-12T00:51:56.268Z,3.95
2019-01-12T00:54:23.478Z,4.12
2019-01-12T00:56:50.870Z,4.13
2019-01-12T00:59:18.024Z,4.11
2019-01-12T01:01:45.224Z,4.15
2019-01-12T01:04:12.382Z,4.17
2019-01-12T01:06:39.567Z,4.23
2019-01-12T01:09:08.370Z,4.18
2019-01-12T01:11:35.750Z,4.12
2019-01-12T01:14:03.056Z,4.09
2019-01-12T01:16:30.271Z,4.05
2019-01-12T01:18:57.434Z,4.04
2019-01-12T01:21:24.614Z,4.10
2019-01-12T01:23:51.806Z,4.26
2019-01-12T01:26:18.987Z,4.33
2019-01-12T01:28:46.185Z,4.32
2019-01-12T01:31:13.407Z,4.46
2019-01-12T01:33:40.570Z,4.46
2019-01-12T01:36:07.679Z,4.47
2019-01-12T01:38:34.891Z,4.48
2019-01-12T01:41:02.063Z,4.38
2019-01-12T01:43:29.256Z,4.36
2019-01-12T01:45:56.468Z,4.37
2019-01-12T01:48:23.633Z,4.41
2019-01-12T01:50:50.763Z,4.44
2019-01-12T01:53:17.979Z,4.40
2019-01-12T01:55:45.128Z,4.47
2019-01-12T01:58:12.217Z,4.58
2019-01-12T02:00:40.030Z,4.53
2019-01-12T02:03:07.113Z,4.51
2019-01-12T02:05:34.231Z,4.52
2019-01-12T02:08:01.421Z,4.55
2019-01-12T02:10:28.896Z,4.63
2019-01-12T02:12:56.112Z,4.57
2019-01-12T02:15:23.342Z,4.55
2019-01-12T02:17:50.394Z,4.57
2019-01-12T02:20:17.558Z,4.60
2019-01-12T02:22:45.084Z,4.67
2019-01-12T02:25:12.764Z,4.65
2019-01-12T02:27:39.912Z,4.65
2019-01-12T02:30:11.494Z,4.66
2019-01-12T02:32:38.646Z,4.69
2019-01-12T02:35:05.918Z,4.71
2019-01-12T02:37:33.131Z,4.73
2019-01-12T02:40:00.383Z,4.74
2019-01-12T02:42:27.544Z,4.80
2019-01-12T02:44:54.660Z,4.82
2019-01-12T02:47:21.836Z,4.82
2019-01-12T02:49:49.002Z,4.83
2019-01-12T02:52:16.214Z,4.84
2019-01-12T02:54:43.388Z,4.84
2019-01-12T02:57:10.573Z,4.81
2019-01-12T02:59:38.032Z,4.81
2019-01-12T03:02:05.211Z,4.80
2019-01-12T03:04:32.366Z,4.80
2019-01-12T03:06:59.490Z,4.78
2019-01-12T03:09:26.633Z,4.78
2019-01-12T03:11:53.812Z,4.77
2019-01-12T03:14:21.112Z,4.87
2019-01-12T03:16:48.294Z,4.95
2019-01-12T03:19:15.458Z,4.90
2019-01-12T03:21:44.523Z,4.91
2019-01-12T03:24:11.738Z,4.85
2019-01-12T03:26:38.825Z,4.84
2019-01-12T03:29:06.038Z,4.92
2019-01-12T03:31:33.089Z,4.89
2019-01-12T03:34:00.250Z,4.87
2019-01-12T03:36:27.442Z,4.78
2019-01-12T03:38:54.632Z,4.80
2019-01-12T03:41:21.791Z,4.75
2019-01-12T03:43:49.017Z,4.86
2019-01-12T03:46:16.287Z,4.83
2019-01-12T03:48:43.465Z,4.79
2019-01-12T03:51:10.896Z,4.83
2019-01-12T03:53:38.252Z,4.86
2019-01-12T03:56:05.428Z,4.80
2019-01-12T03:58:32.655Z,4.76
2019-01-12T04:00:59.832Z,4.71
2019-01-12T04:03:27.001Z,4.69
2019-01-12T04:05:54.101Z,4.68
2019-01-12T04:08:21.197Z,4.76
2019-01-12T04:10:48.380Z,4.81
2019-01-12T04:13:15.598Z,4.83
2019-01-12T04:15:42.751Z,4.75
2019-01-12T04:18:10.212Z,4.62
2019-01-12T04:20:37.406Z,4.52
2019-01-12T04:23:04.567Z,4.56
2019-01-12T04:25:33.858Z,4.67
2019-01-12T04:28:01.190Z,4.73
2019-01-12T04:30:28.368Z,4.71
2019-01-12T04:32:55.420Z,4.70
2019-01-12T04:35:22.625Z,4.87
2019-01-12T04:37:49.788Z,5.05
2019-01-12T04:40:18.063Z,4.94
2019-01-12T04:42:45.295Z,4.93
2019-01-12T04:45:12.527Z,4.86
2019-01-12T04:47:39.582Z,4.81
2019-01-12T04:50:10.906Z,4.86
2019-01-12T04:52:38.096Z,4.90
2019-01-12T04:55:05.372Z,4.92
2019-01-12T04:57:32.885Z,4.95
2019-01-12T05:00:00.162Z,4.99
2019-01-12T05:02:28.024Z,5.02
2019-01-12T05:04:55.212Z,5.05
2019-01-12T05:07:22.611Z,5.07
2019-01-12T05:09:49.760Z,5.15
2019-01-12T05:12:16.966Z,5.23
2019-01-12T05:14:44.110Z,5.26
2019-01-12T05:17:11.320Z,5.33
2019-01-12T05:19:38.492Z,5.32
2019-01-12T05:22:05.692Z,5.21
2019-01-12T05:24:32.867Z,5.03
2019-01-12T05:27:00.049Z,4.96
2019-01-12T05:29:27.238Z,4.89
2019-01-12T05:31:54.294Z,4.93
2019-01-12T05:34:22.397Z,4.85
2019-01-12T05:36:49.886Z,4.76
2019-01-12T05:39:17.055Z,4.71
2019-01-12T05:41:44.273Z,4.68
2019-01-12T05:44:11.439Z,4.66
2019-01-12T05:46:38.628Z,4.63
2019-01-12T05:49:05.845Z,4.68
2019-01-12T05:51:33.054Z,4.66
2019-01-12T05:54:00.250Z,4.64
2019-01-12T05:56:27.495Z,4.59
2019-01-12T05:58:54.717Z,4.58
2019-01-12T06:01:21.903Z,4.60
2019-01-12T06:03:49.111Z,4.69
2019-01-12T06:06:16.311Z,4.69
2019-01-12T06:08:43.494Z,4.73
2019-01-12T06:11:10.669Z,4.75
2019-01-12T06:13:37.757Z,4.78
2019-01-12T06:16:05.007Z,4.82
2019-01-12T06:18:32.286Z,4.93
2019-01-12T06:20:59.336Z,5.04
2019-01-12T06:23:26.546Z,5.17
2019-01-12T06:25:53.731Z,5.27
2019-01-12T06:28:21.236Z,5.29
2019-01-12T06:30:48.473Z,5.20
2019-01-12T06:33:15.548Z,5.20
2019-01-12T06:35:42.940Z,5.22
2019-01-12T06:38:10.145Z,5.21
2019-01-12T06:40:37.332Z,5.21
2019-01-12T06:43:04.528Z,5.23
2019-01-12T06:45:31.681Z,5.30
2019-01-12T06:47:58.770Z,5.35
2019-01-12T06:50:25.819Z,5.31
2019-01-12T06:52:52.995Z,5.31
2019-01-12T06:55:20.089Z,5.31
2019-01-12T06:57:47.315Z,5.36
2019-01-12T07:00:16.387Z,5.38
2019-01-12T07:02:43.589Z,5.35
2019-01-12T07:05:10.769Z,5.30
2019-01-12T07:07:38.241Z,5.21
2019-01-12T07:10:06.440Z,5.07
2019-01-12T07:12:33.606Z,4.91
2019-01-12T07:15:00.795Z,4.75
2019-01-12T07:17:28.004Z,4.76
2019-01-12T07:19:55.171Z,4.63
2019-01-12T07:22:22.331Z,4.45
2019-01-12T07:24:49.538Z,4.37
2019-01-12T07:27:16.696Z,4.28
2019-01-12T07:29:43.875Z,4.23
2019-01-12T07:32:11.087Z,4.24
2019-01-12T07:34:38.504Z,4.26
2019-01-12T07:37:05.587Z,4.33
2019-01-12T07:39:32.764Z,4.40
2019-01-12T07:41:59.821Z,4.49
2019-01-12T07:44:27.019Z,4.57
2019-01-12T07:46:54.615Z,4.74
2019-01-12T07:49:21.783Z,4.81
2019-01-12T07:51:48.966Z,4.92
2019-01-12T07:54:16.458Z,4.98
2019-01-12T07:56:43.615Z,5.07
2019-01-12T07:59:10.829Z,5.22
2019-01-12T08:01:38.026Z,5.32
2019-01-12T08:04:05.202Z,5.38
2019-01-12T08:06:32.467Z,5.48
2019-01-12T08:08:59.658Z,5.60
2019-01-12T08:11:27.089Z,5.69
2019-01-12T08:13:54.202Z,5.76
2019-01-12T08:16:21.380Z,5.85
2019-01-12T08:18:48.441Z,6.04
2019-01-12T08:21:15.888Z,6.07
2019-01-12T08:23:43.106Z,6.03
2019-01-12T08:26:10.252Z,6.06
2019-01-12T08:28:37.448Z,6.15
2019-01-12T08:31:04.768Z,6.22
2019-01-12T08:33:31.954Z,6.34
2019-01-12T08:35:59.075Z,6.47
2019-01-12T08:38:26.263Z,6.66
2019-01-12T08:40:53.426Z,6.82
2019-01-12T08:43:20.628Z,6.96
2019-01-12T08:45:47.797Z,7.01
2019-01-12T08:48:14.885Z,6.94
2019-01-12T08:50:41.999Z,6.96
2019-01-12T08:53:09.303Z,7.23
2019-01-12T08:55:36.457Z,7.46
2019-01-12T08:58:03.677Z,7.53
2019-01-12T09:00:30.789Z,7.56
2019-01-12T09:02:57.970Z,7.65
2019-01-12T09:05:25.080Z,7.77
2019-01-12T09:07:52.296Z,7.81
2019-01-12T09:10:20.411Z,7.89
2019-01-12T09:12:47.689Z,7.93
2019-01-12T09:15:15.136Z,8.02
2019-01-12T09:17:42.553Z,8.13
2019-01-12T09:20:11.087Z,8.42
2019-01-12T09:22:38.277Z,8.60
2019-01-12T09:25:06.433Z,8.81
2019-01-12T09:27:33.624Z,9.07
2019-01-12T09:30:00.837Z,9.28
2019-01-12T09:32:28.008Z,9.41
2019-01-12T09:34:55.183Z,9.45
2019-01-12T09:37:22.455Z,9.42
2019-01-12T09:39:49.957Z,9.33
2019-01-12T09:42:17.047Z,9.20
2019-01-12T09:44:44.215Z,9.05
2019-01-12T09:47:11.268Z,8.79
2019-01-12T09:49:38.487Z,8.66
2019-01-12T09:52:05.664Z,8.52
2019-01-12T09:54:32.881Z,8.50
2019-01-12T09:57:00.079Z,8.41
2019-01-12T09:59:27.331Z,8.35
2019-01-12T10:01:55.342Z,8.38
2019-01-12T10:04:22.534Z,8.35
2019-01-12T10:06:49.766Z,8.46
2019-01-12T10:09:16.974Z,8.37
2019-01-12T10:11:44.469Z,8.35
2019-01-12T10:14:11.688Z,8.28
2019-01-12T10:16:38.851Z,8.23
2019-01-12T10:19:06.340Z,8.22
2019-01-12T10:21:33.843Z,8.17
2019-01-12T10:24:00.928Z,8.11
2019-01-12T10:26:28.077Z,8.02
2019-01-12T10:28:55.194Z,8.00
2019-01-12T10:31:22.362Z,7.93
2019-01-12T10:33:49.524Z,7.81
2019-01-12T10:36:16.866Z,7.72
2019-01-12T10:38:44.339Z,7.73
2019-01-12T10:41:11.582Z,7.74
2019-01-12T10:43:39.116Z,7.70
2019-01-12T10:46:06.564Z,7.64
2019-01-12T10:48:33.989Z,7.59
2019-01-12T10:51:01.123Z,7.61
2019-01-12T10:53:28.860Z,7.59
2019-01-12T10:55:56.041Z,7.53
2019-01-12T10:58:23.215Z,7.61
2019-01-12T11:00:50.421Z,7.56
2019-01-12T11:03:17.887Z,7.63
2019-01-12T11:05:45.039Z,7.64
2019-01-12T11:08:12.515Z,7.69
2019-01-12T11:10:39.709Z,7.73
2019-01-12T11:13:06.938Z,7.70
2019-01-12T11:15:34.129Z,7.70
2019-01-12T11:18:01.172Z,7.56
2019-01-12T11:20:28.409Z,7.51
2019-01-12T11:22:55.578Z,7.53
2019-01-12T11:25:22.762Z,7.45
2019-01-12T11:27:50.275Z,7.38
2019-01-12T11:30:18.074Z,7.42
2019-01-12T11:32:45.251Z,7.74
2019-01-12T11:35:12.985Z,7.79
2019-01-12T11:37:40.211Z,8.00
2019-01-12T11:40:17.824Z,8.16
2019-01-12T11:42:45.608Z,8.20
2019-01-12T11:45:13.341Z,8.23
2019-01-12T11:47:40.512Z,8.36
2019-01-12T11:50:10.499Z,8.44
2019-01-12T11:52:37.972Z,8.37
2019-01-12T11:55:05.866Z,8.22
2019-01-12T11:57:33.284Z,8.11
2019-01-12T12:00:00.487Z,7.94
2019-01-12T12:02:27.943Z,7.91
2019-01-12T12:04:55.178Z,7.88
2019-01-12T12:07:22.387Z,7.87
2019-01-12T12:09:49.583Z,7.88
2019-01-12T12:12:16.770Z,7.89
2019-01-12T12:14:43.954Z,7.86
2019-01-12T12:17:11.215Z,7.85
2019-01-12T12:19:38.737Z,7.77
2019-01-12T12:22:05.982Z,7.68
2019-01-12T12:24:33.221Z,7.71
2019-01-12T12:27:00.395Z,7.69
2019-01-12T12:29:27.583Z,7.63
2019-01-12T12:31:54.872Z,7.70
2019-01-12T12:34:21.953Z,7.63
2019-01-12T12:36:49.585Z,7.46
2019-01-12T12:39:16.851Z,7.49
2019-01-12T12:41:44.313Z,7.38
2019-01-12T12:44:11.464Z,7.30
2019-01-12T12:46:38.934Z,7.30
2019-01-12T12:49:06.091Z,7.32
2019-01-12T12:51:33.263Z,7.33
2019-01-12T12:54:00.602Z,7.24
2019-01-12T12:56:28.019Z,7.31
2019-01-12T12:58:55.193Z,7.38
2019-01-12T13:01:22.377Z,7.55
2019-01-12T13:03:49.537Z,7.84
2019-01-12T13:06:16.774Z,7.83
2019-01-12T13:08:48.452Z,7.85
2019-01-12T13:11:12.961Z,7.90
2019-01-12T13:13:41.290Z,7.99
2019-01-12T13:16:08.404Z,8.03
2019-01-12T13:18:35.605Z,8.07
2019-01-12T13:21:02.847Z,8.01
2019-01-12T13:23:30.367Z,7.88
2019-01-12T13:25:57.563Z,7.78
2019-01-12T13:28:24.757Z,7.78
2019-01-12T13:30:52.207Z,7.76
2019-01-12T13:33:19.590Z,7.73
2019-01-12T13:35:46.657Z,7.70
2019-01-12T13:38:13.920Z,7.71
2019-01-12T13:40:41.090Z,7.75
2019-01-12T13:43:08.279Z,7.62
2019-01-12T13:45:35.457Z,7.56
2019-01-12T13:48:03.188Z,7.49
2019-01-12T13:50:30.288Z,7.40
2019-01-12T13:52:57.514Z,7.33
2019-01-12T13:55:24.702Z,7.29
2019-01-12T13:57:51.766Z,7.23
2019-01-12T14:00:30.324Z,7.31
2019-01-12T14:02:57.522Z,7.19
2019-01-12T14:05:24.748Z,7.21
2019-01-12T14:07:56.045Z,7.08
2019-01-12T14:10:21.366Z,7.11
2019-01-12T14:12:48.658Z,7.12
2019-01-12T14:15:16.345Z,7.03
2019-01-12T14:17:43.428Z,6.93
2019-01-12T14:20:16.483Z,6.86
2019-01-12T14:22:43.847Z,6.74
2019-01-12T14:25:11.006Z,6.59
2019-01-12T14:27:38.156Z,6.66
2019-01-12T14:30:08.109Z,6.60
2019-01-12T14:32:35.567Z,6.53
2019-01-12T14:35:03.260Z,6.67
2019-01-12T14:37:30.498Z,6.57
2019-01-12T14:39:57.880Z,6.59
2019-01-12T14:42:25.371Z,6.65
2019-01-12T14:44:52.865Z,6.52
2019-01-12T14:47:20.057Z,6.40
2019-01-12T14:49:47.117Z,6.45
2019-01-12T14:52:14.354Z,6.48
2019-01-12T14:54:41.526Z,6.35
2019-01-12T14:57:08.717Z,6.24
2019-01-12T14:59:35.953Z,6.26
2019-01-12T15:02:03.211Z,6.31
2019-01-12T15:04:30.380Z,6.24
2019-01-12T15:06:57.647Z,6.22
2019-01-12T15:09:24.790Z,6.28
2019-01-12T15:11:51.961Z,6.25
2019-01-12T15:14:19.448Z,6.39
2019-01-12T15:16:46.601Z,6.33
2019-01-12T15:19:14.053Z,6.39
2019-01-12T15:21:41.564Z,6.37
2019-01-12T15:24:10.179Z,6.33
2019-01-12T15:26:37.373Z,6.30
2019-01-12T15:29:04.580Z,6.26
2019-01-12T15:31:31.725Z,6.30
2019-01-12T15:33:58.888Z,6.28
2019-01-12T15:36:26.042Z,6.30
2019-01-12T15:38:53.164Z,6.29
2019-01-12T15:41:20.670Z,6.33
2019-01-12T15:43:47.861Z,6.44
2019-01-12T15:46:15.390Z,6.43
2019-01-12T15:48:42.574Z,6.52
2019-01-12T15:51:09.696Z,6.45
2019-01-12T15:53:36.876Z,6.51
2019-01-12T15:56:04.085Z,6.53
2019-01-12T15:58:31.303Z,6.53
2019-01-12T16:00:58.511Z,6.48
2019-01-12T16:03:25.982Z,6.45
2019-01-12T16:05:53.099Z,6.43
2019-01-12T16:08:20.445Z,6.41
2019-01-12T16:10:47.644Z,6.45
2019-01-12T16:13:14.748Z,6.41
2019-01-12T16:15:41.901Z,6.38
2019-01-12T16:18:09.404Z,6.55
2019-01-12T16:20:37.904Z,6.47
2019-01-12T16:23:05.150Z,6.37
2019-01-12T16:25:32.323Z,6.39
2019-01-12T16:27:59.527Z,6.33
2019-01-12T16:30:26.715Z,6.31
2019-01-12T16:32:53.885Z,6.33
2019-01-12T16:35:21.144Z,6.45
2019-01-12T16:37:48.327Z,6.40
2019-01-12T16:40:17.569Z,6.41
2019-01-12T16:42:44.820Z,6.46
2019-01-12T16:45:12.272Z,6.51
2019-01-12T16:47:39.368Z,6.51
2019-01-12T16:50:06.609Z,6.42
2019-01-12T16:52:34.070Z,6.49
2019-01-12T16:55:01.305Z,6.41
2019-01-12T16:57:28.603Z,6.23
2019-01-12T16:59:55.786Z,6.30
2019-01-12T17:02:23.028Z,6.35
2019-01-12T17:04:50.208Z,6.27
2019-01-12T17:07:17.409Z,6.22
2019-01-12T17:09:44.911Z,6.18
2019-01-12T17:12:12.198Z,6.16
2019-01-12T17:14:39.372Z,6.02
2019-01-12T17:17:06.604Z,5.98
2019-01-12T17:19:34.116Z,5.99
2019-01-12T17:22:01.527Z,6.12
2019-01-12T17:24:28.801Z,6.21
2019-01-12T17:26:55.997Z,6.13
2019-01-12T17:29:23.242Z,6.07
2019-01-12T17:31:50.606Z,6.09
2019-01-12T17:34:17.792Z,6.09
2019-01-12T17:36:44.856Z,6.06
2019-01-12T17:39:12.059Z,6.04
2019-01-12T17:41:39.532Z,6.06
2019-01-12T17:44:06.983Z,6.10
2019-01-12T17:46:34.405Z,6.13
2019-01-12T17:49:01.605Z,6.14
2019-01-12T17:51:29.085Z,6.15
2019-01-12T17:53:56.307Z,6.15
2019-01-12T17:56:23.517Z,6.13
2019-01-12T17:58:50.999Z,6.11
2019-01-12T18:01:18.154Z,6.18
2019-01-12T18:03:45.451Z,6.12
2019-01-12T18:06:13.732Z,6.15
2019-01-12T18:08:41.060Z,6.19
2019-01-12T18:11:08.283Z,6.01
2019-01-12T18:13:35.390Z,5.99
2019-01-12T18:16:02.712Z,6.02
2019-01-12T18:18:29.933Z,6.01
2019-01-12T18:20:57.025Z,5.94
2019-01-12T18:23:24.201Z,6.10
2019-01-12T18:25:51.749Z,6.03
2019-01-12T18:28:19.249Z,6.07
2019-01-12T18:30:46.443Z,6.12
2019-01-12T18:33:13.554Z,6.10
2019-01-12T18:35:40.720Z,5.98
2019-01-12T18:38:07.925Z,5.96
2019-01-12T18:40:35.173Z,5.99
2019-01-12T18:43:02.414Z,6.11
2019-01-12T18:45:29.659Z,6.03
2019-01-12T18:47:56.850Z,6.00
2019-01-12T18:50:25.129Z,5.90
2019-01-12T18:52:53.144Z,5.82
2019-01-12T18:55:20.688Z,6.02
2019-01-12T18:57:48.314Z,6.03
2019-01-12T19:00:18.555Z,5.93
2019-01-12T19:02:46.187Z,6.00
2019-01-12T19:05:13.862Z,5.94
2019-01-12T19:07:41.316Z,6.06
2019-01-12T19:10:09.160Z,6.02
2019-01-12T19:12:36.479Z,5.98
2019-01-12T19:15:05.599Z,5.98
2019-01-12T19:17:32.847Z,6.04
2019-01-12T19:20:00.291Z,6.26
2019-01-12T19:22:27.747Z,6.14
2019-01-12T19:24:54.948Z,6.14
2019-01-12T19:27:22.135Z,6.02
2019-01-12T19:29:49.325Z,5.96
2019-01-12T19:32:16.545Z,5.92
2019-01-12T19:34:44.025Z,6.11
2019-01-12T19:37:11.145Z,6.06
2019-01-12T19:39:38.658Z,6.17
2019-01-12T19:42:05.995Z,6.09
2019-01-12T19:44:33.196Z,6.06
2019-01-12T19:47:00.389Z,6.03
2019-01-12T19:49:27.665Z,5.95
2019-01-12T19:51:55.179Z,5.98
2019-01-12T19:54:22.402Z,6.10
2019-01-12T19:56:49.626Z,6.10
2019-01-12T19:59:17.107Z,6.05
2019-01-12T20:01:44.765Z,6.00
2019-01-12T20:04:11.931Z,5.99
2019-01-12T20:06:39.074Z,5.97
2019-01-12T20:09:08.101Z,5.95
2019-01-12T20:11:35.404Z,6.00
2019-01-12T20:14:03.105Z,6.09
2019-01-12T20:16:30.628Z,6.01
2019-01-12T20:18:57.701Z,6.00
2019-01-12T20:21:24.897Z,6.16
2019-01-12T20:23:51.979Z,6.09
2019-01-12T20:26:19.168Z,6.20
2019-01-12T20:28:47.315Z,6.30
2019-01-12T20:31:24.013Z,6.18
2019-01-12T20:34:47.756Z,6.24
2019-01-12T20:37:51.965Z,6.21
2019-01-12T20:40:55.901Z,6.05
2019-01-12T20:44:02.268Z,6.00
2019-01-12T20:47:13.212Z,6.13
2019-01-12T20:50:06.233Z,6.06
2019-01-12T20:53:03.206Z,6.10
2019-01-12T20:55:42.875Z,6.23
2019-01-12T20:58:41.948Z,6.37
2019-01-12T21:02:12.191Z,6.36
2019-01-12T21:05:11.667Z,6.18
2019-01-12T21:07:56.324Z,6.14
2019-01-12T21:11:18.730Z,6.17
2019-01-12T21:14:01.417Z,6.23
2019-01-12T21:16:32.248Z,6.25
2019-01-12T21:18:59.705Z,6.21
2019-01-12T21:21:26.957Z,6.20
2019-01-12T21:23:54.167Z,6.31
2019-01-12T21:26:21.237Z,6.49
2019-01-12T21:28:48.473Z,6.53
2019-01-12T21:31:15.629Z,6.38
2019-01-12T21:33:43.367Z,6.28
2019-01-12T21:36:10.631Z,6.24
2019-01-12T21:38:38.798Z,6.19
2019-01-12T21:41:05.969Z,6.13
2019-01-12T21:43:33.223Z,6.12
2019-01-12T21:46:00.385Z,6.15
2019-01-12T21:48:28.268Z,6.16
2019-01-12T21:50:55.477Z,6.14
2019-01-12T21:53:22.780Z,6.11
2019-01-12T21:55:49.973Z,6.13
2019-01-12T21:58:17.821Z,6.15
2019-01-12T22:00:45.153Z,6.24
2019-01-12T22:03:12.257Z,6.26
2019-01-12T22:05:39.731Z,6.19
2019-01-12T22:08:06.888Z,6.14
2019-01-12T22:10:34.108Z,6.13
2019-01-12T22:13:01.357Z,6.13
2019-01-12T22:15:28.656Z,6.13
2019-01-12T22:17:55.742Z,6.10
2019-01-12T22:20:23.238Z,6.10
2019-01-12T22:22:50.410Z,6.08
2019-01-12T22:25:17.623Z,6.09
2019-01-12T22:27:45.162Z,6.10
2019-01-12T22:30:14.460Z,6.14
2019-01-12T22:32:41.667Z,6.32
2019-01-12T22:35:08.872Z,6.32
2019-01-12T22:37:36.308Z,6.28
2019-01-12T22:40:06.941Z,6.26
2019-01-12T22:42:34.182Z,6.21
2019-01-12T22:45:01.254Z,6.09
2019-01-12T22:47:28.570Z,6.02
2019-01-12T22:49:55.677Z,6.22
2019-01-12T22:52:23.131Z,6.20
2019-01-12T22:54:51.160Z,6.10
2019-01-12T22:57:18.356Z,6.14
2019-01-12T22:59:45.566Z,6.14
2019-01-12T23:02:12.763Z,6.17
2019-01-12T23:04:39.975Z,6.21
2019-01-12T23:07:11.421Z,6.23
2019-01-12T23:09:36.574Z,6.29
2019-01-12T23:12:04.180Z,6.29
2019-01-12T23:14:32.976Z,6.49
2019-01-12T23:17:00.329Z,6.66
2019-01-12T23:19:27.773Z,6.61
2019-01-12T23:21:54.943Z,6.53
2019-01-12T23:24:22.027Z,6.70
2019-01-12T23:26:49.983Z,6.63
2019-01-12T23:29:17.167Z,6.60
2019-01-12T23:31:44.253Z,6.61
2019-01-12T23:34:11.480Z,6.77
2019-01-12T23:36:38.807Z,6.69
2019-01-12T23:39:09.818Z,6.63
2019-01-12T23:41:37.026Z,6.85
2019-01-12T23:44:04.247Z,6.74
2019-01-12T23:46:31.428Z,6.72
2019-01-12T23:48:58.612Z,6.71
2019-01-12T23:51:25.821Z,6.70
2019-01-12T23:53:53.251Z,6.71
2019-01-12T23:56:21.096Z,6.81
2019-01-12T23:58:48.265Z,6.80
